Time;durP1;ratioP1;P1;durP2;ratioP2;P2;SDS_P1;SDS_P2;PMS_P1;PMS_P2;Temp;Humidity;BMP_temperature;BMP_pressure;BME280_temperature;BME280_humidity;BME280_pressure;Samples;Min_cycle;Max_cycle;Signal;HPM_P1;HPM_P2
2022/05/24 00:00:07;;;;;;;28.40;20.00;;;14.20;99.90;;;;;;5078783;28;20115;-76
2022/05/24 00:02:33;;;;;;;25.73;19.08;;;14.20;99.90;;;;;;5075019;28;20047;-77
2022/05/24 00:05:00;;;;;;;29.50;19.88;;;14.20;99.90;;;;;;5075396;28;20024;-75
2022/05/24 00:07:26;;;;;;;24.77;18.73;;;14.30;99.90;;;;;;5077796;28;20580;-76
2022/05/24 00:09:51;;;;;;;31.40;19.85;;;14.20;99.90;;;;;;5079342;28;20032;-76
2022/05/24 00:12:17;;;;;;;24.88;19.17;;;14.20;99.90;;;;;;5080996;28;20017;-77
2022/05/24 00:17:26;;;;;;;32.40;19.33;;;14.10;99.90;;;;;;5076568;28;20056;-76
2022/05/24 00:19:52;;;;;;;33.58;19.27;;;14.10;99.90;;;;;;5078084;28;20024;-78
2022/05/24 00:22:18;;;;;;;26.00;18.17;;;14.20;99.90;;;;;;5079379;28;20051;-77
2022/05/24 00:24:43;;;;;;;32.15;17.98;;;14.10;99.90;;;;;;5075797;28;20021;-76
2022/05/24 00:27:09;;;;;;;25.67;15.77;;;14.10;99.90;;;;;;5074412;28;20418;-76
2022/05/24 00:29:36;;;;;;;23.98;13.82;;;14.10;99.90;;;;;;5074153;28;20025;-76
2022/05/24 00:32:02;;;;;;;23.95;13.38;;;14.10;99.90;;;;;;5074609;28;20028;-77
2022/05/24 00:34:28;;;;;;;20.67;12.98;;;14.00;99.90;;;;;;5074594;28;20111;-77
2022/05/24 00:36:53;;;;;;;27.08;11.93;;;14.00;99.90;;;;;;5072973;28;20120;-77
2022/05/24 00:39:20;;;;;;;18.58;12.10;;;14.00;99.90;;;;;;5074544;28;20056;-76
2022/05/24 00:41:58;;;;;;;16.92;10.80;;;14.00;99.90;;;;;;5074223;28;20093;-76
2022/05/24 00:44:29;;;;;;;28.27;11.30;;;13.90;99.90;;;;;;5073691;28;20499;-77
2022/05/24 00:47:05;;;;;;;18.77;10.70;;;13.90;99.90;;;;;;5074168;28;20116;-77
2022/05/24 00:49:56;;;;;;;31.23;11.85;;;13.90;99.90;;;;;;5073676;28;20064;-77
2022/05/24 00:52:43;;;;;;;17.88;9.70;;;13.70;99.90;;;;;;5074455;28;20374;-78
2022/05/24 00:55:13;;;;;;;14.35;8.25;;;13.70;99.90;;;;;;5074149;28;20044;-76
2022/05/24 00:57:58;;;;;;;9.85;7.53;;;13.60;99.90;;;;;;5073415;28;20067;-77
2022/05/24 01:00:24;;;;;;;14.20;7.65;;;13.60;99.90;;;;;;5074181;28;20040;-76
2022/05/24 01:02:50;;;;;;;15.25;6.47;;;13.60;99.90;;;;;;5073734;28;20089;-77
2022/05/24 01:05:22;;;;;;;14.00;6.22;;;13.60;99.90;;;;;;5073511;28;20025;-75
2022/05/24 01:07:48;;;;;;;10.88;6.65;;;14.40;99.90;;;;;;5073771;28;20150;-76
2022/05/24 01:10:30;;;;;;;15.13;6.45;;;13.40;99.90;;;;;;5074103;28;20036;-77
2022/05/24 01:13:04;;;;;;;13.05;7.35;;;13.50;99.90;;;;;;5073575;28;20110;-77
2022/05/24 01:15:31;;;;;;;12.52;6.05;;;13.40;99.90;;;;;;5074370;28;20025;-78
2022/05/24 01:17:58;;;;;;;16.10;5.38;;;13.40;99.90;;;;;;5074302;28;20039;-78
2022/05/24 01:20:24;;;;;;;10.02;6.05;;;13.40;99.90;;;;;;5073980;28;20043;-77
2022/05/24 01:23:11;;;;;;;13.93;5.60;;;13.50;99.90;;;;;;5073546;28;20115;-77
2022/05/24 01:25:49;;;;;;;8.70;5.72;;;13.50;99.90;;;;;;5073316;28;20028;-76
2022/05/24 01:28:26;;;;;;;9.70;5.38;;;13.60;99.90;;;;;;5073655;28;20104;-77
2022/05/24 01:30:54;;;;;;;15.48;6.07;;;13.60;99.90;;;;;;5073303;28;20028;-77
2022/05/24 01:36:11;;;;;;;11.48;5.97;;;13.70;99.90;;;;;;5073534;28;20392;-76
2022/05/24 01:38:41;;;;;;;12.75;6.45;;;13.70;99.90;;;;;;5072811;28;20120;-76
2022/05/24 01:41:10;;;;;;;12.98;5.80;;;13.70;99.90;;;;;;5073112;28;20055;-77
2022/05/24 01:43:37;;;;;;;11.52;6.05;;;13.70;99.90;;;;;;5073241;28;20036;-77
2022/05/24 01:46:06;;;;;;;13.50;7.05;;;13.70;99.90;;;;;;5072343;28;20037;-78
2022/05/24 01:49:01;;;;;;;19.00;9.13;;;13.70;99.90;;;;;;5072460;28;20029;-77
2022/05/24 01:51:36;;;;;;;15.95;8.73;;;13.70;99.90;;;;;;5071919;28;20052;-77
2022/05/24 01:54:05;;;;;;;18.77;8.68;;;13.60;99.90;;;;;;5072279;28;20388;-77
2022/05/24 01:56:56;;;;;;;16.27;9.50;;;13.60;99.90;;;;;;5072904;28;20056;-75
2022/05/24 01:59:22;;;;;;;;;;;13.70;99.90;;;;;;5073700;28;20024;-76
2022/05/24 02:01:50;;;;;;;20.95;9.90;;;13.70;99.90;;;;;;5078565;28;20356;-78
2022/05/24 02:04:18;;;;;;;18.35;9.60;;;13.70;99.90;;;;;;5079525;28;20048;-78
2022/05/24 02:06:44;;;;;;;15.35;9.52;;;13.70;99.90;;;;;;5072903;28;20028;-77
2022/05/24 02:09:11;;;;;;;14.13;10.18;;;13.70;99.90;;;;;;5072551;28;20027;-77
2022/05/24 02:11:37;;;;;;;15.10;10.10;;;13.70;99.90;;;;;;5072976;28;20044;-77
2022/05/24 02:14:14;;;;;;;19.83;10.50;;;13.70;99.90;;;;;;5076493;28;20083;-79
2022/05/24 02:16:50;;;;;;;15.10;10.68;;;13.70;99.90;;;;;;5080217;28;20056;-77
2022/05/24 02:19:18;;;;;;;20.95;9.52;;;13.80;99.90;;;;;;5094703;28;20046;-78
2022/05/24 02:21:46;;;;;;;17.00;10.38;;;13.80;99.90;;;;;;5105320;28;20484;-77
2022/05/24 02:24:22;;;;;;;15.02;10.30;;;13.70;99.90;;;;;;5093262;28;20032;-78
2022/05/24 02:26:48;;;;;;;20.15;10.93;;;13.70;99.90;;;;;;5093007;28;20028;-78
2022/05/24 02:29:16;;;;;;;15.95;10.27;;;13.70;99.90;;;;;;5092497;28;20024;-78
2022/05/24 02:31:42;;;;;;;20.27;9.93;;;13.60;99.90;;;;;;5092815;28;20047;-77
2022/05/24 02:34:08;;;;;;;21.35;10.63;;;13.60;99.90;;;;;;5092248;28;20082;-78
2022/05/24 02:36:33;;;;;;;14.05;10.10;;;13.60;99.90;;;;;;5092166;28;20016;-78
2022/05/24 02:38:59;;;;;;;17.67;10.65;;;13.60;99.90;;;;;;5092240;28;20464;-76
2022/05/24 02:41:33;;;;;;;16.65;10.52;;;13.60;99.90;;;;;;5092486;28;20021;-77
2022/05/24 02:44:10;;;;;;;25.08;11.43;;;13.60;99.90;;;;;;5091568;28;20070;-77
2022/05/24 02:46:41;;;;;;;23.83;10.52;;;13.70;99.90;;;;;;5091295;28;20174;-77
2022/05/24 02:49:07;;;;;;;20.75;11.00;;;13.70;99.90;;;;;;5091959;28;20028;-77
2022/05/24 02:51:34;;;;;;;18.02;11.00;;;13.70;99.90;;;;;;5092874;28;20102;-78
2022/05/24 02:54:00;;;;;;;15.43;9.60;;;13.70;99.90;;;;;;5092389;28;20024;-76
2022/05/24 02:56:27;;;;;;;15.68;10.57;;;13.60;99.90;;;;;;5091883;28;20104;-75
2022/05/24 02:58:53;;;;;;;19.70;11.80;;;13.60;99.90;;;;;;5091669;28;20107;-77
2022/05/24 03:01:27;;;;;;;24.35;11.82;;;13.60;99.90;;;;;;5092160;28;20111;-78
2022/05/24 03:03:54;;;;;;;18.70;11.48;;;13.60;99.90;;;;;;5091429;28;20551;-77
2022/05/24 03:06:21;;;;;;;18.42;11.60;;;13.50;99.90;;;;;;5092433;28;20035;-78
2022/05/24 03:14:14;;;;;;;21.27;11.38;;;13.60;99.90;;;;;;5092079;28;20058;-78
2022/05/24 03:14:20;;;;;;;16.23;11.80;;;13.60;99.90;;;;;;5096965;28;20080;-77
2022/05/24 03:16:52;;;;;;;19.02;11.48;;;13.60;99.90;;;;;;5096674;28;20020;-77
2022/05/24 03:19:18;;;;;;;19.13;11.65;;;13.70;99.90;;;;;;5091622;28;20102;-76
2022/05/24 03:21:44;;;;;;;21.35;13.13;;;13.70;99.90;;;;;;5092185;28;20043;-76
2022/05/24 03:24:10;;;;;;;18.25;12.77;;;13.60;99.90;;;;;;5091099;28;20024;-77
2022/05/24 03:26:37;;;;;;;26.35;12.57;;;13.60;99.90;;;;;;5092120;28;20100;-76
2022/05/24 03:29:04;;;;;;;19.73;11.82;;;13.60;99.90;;;;;;5091648;28;20093;-76
2022/05/24 03:31:31;;;;;;;24.25;13.00;;;13.50;99.90;;;;;;5091066;28;20472;-77
2022/05/24 03:33:57;;;;;;;21.75;11.75;;;13.50;99.90;;;;;;5091549;28;20042;-77
2022/05/24 03:36:22;;;;;;;16.92;12.68;;;13.50;99.90;;;;;;5091927;28;20099;-76
2022/05/24 03:38:48;;;;;;;26.48;12.65;;;13.50;99.90;;;;;;5090781;28;20494;-77
2022/05/24 03:41:14;;;;;;;19.45;12.40;;;13.50;99.90;;;;;;5091834;28;20028;-76
2022/05/24 03:43:40;;;;;;;19.15;12.88;;;13.50;99.90;;;;;;5091978;28;20391;-77
2022/05/24 03:46:08;;;;;;;24.85;12.95;;;13.40;99.90;;;;;;5090939;28;20020;-77
2022/05/24 03:48:35;;;;;;;22.27;12.55;;;13.40;99.90;;;;;;5092217;28;20020;-78
2022/05/24 03:51:02;;;;;;;20.73;13.60;;;13.50;99.90;;;;;;5091418;28;20059;-78
2022/05/24 03:53:28;;;;;;;18.70;13.23;;;13.50;99.90;;;;;;5091400;28;20024;-78
2022/05/24 03:55:54;;;;;;;21.10;14.75;;;13.50;99.90;;;;;;5091429;28;20080;-77
2022/05/24 03:58:21;;;;;;;27.85;13.45;;;13.50;99.90;;;;;;5091584;28;20466;-77
2022/05/24 04:00:47;;;;;;;17.55;13.45;;;13.60;99.90;;;;;;5091160;28;20043;-77
2022/05/24 04:03:12;;;;;;;19.52;14.20;;;13.60;99.90;;;;;;5091471;28;20118;-78
2022/05/24 04:05:38;;;;;;;17.40;14.27;;;13.70;99.90;;;;;;5091667;28;20020;-78
2022/05/24 04:08:04;;;;;;;24.00;13.80;;;13.70;99.90;;;;;;5090576;28;20024;-77
2022/05/24 04:10:30;;;;;;;24.23;13.80;;;13.70;99.90;;;;;;5100661;28;20020;-78
2022/05/24 04:12:56;;;;;;;23.92;13.65;;;13.70;99.90;;;;;;5097927;28;20387;-77
2022/05/24 04:15:23;;;;;;;25.45;14.10;;;13.60;99.90;;;;;;5095061;28;20020;-78
2022/05/24 04:17:52;;;;;;;21.85;13.40;;;13.60;99.90;;;;;;5094891;28;20403;-77
2022/05/24 04:20:20;;;;;;;19.58;13.38;;;13.60;99.90;;;;;;5098834;28;20036;-78
2022/05/24 04:22:45;;;;;;;20.50;13.23;;;13.40;99.90;;;;;;5098848;28;20036;-77
2022/05/24 04:25:13;;;;;;;18.92;11.70;;;13.50;99.90;;;;;;5081948;28;20111;-77
2022/05/24 04:27:39;;;;;;;21.40;11.75;;;13.50;99.90;;;;;;5100998;28;20032;-77
2022/05/24 04:30:07;;;;;;;18.30;11.30;;;13.40;99.90;;;;;;5095351;28;20107;-77
2022/05/24 04:32:33;;;;;;;18.00;9.65;;;13.40;99.90;;;;;;5094922;28;20527;-77
2022/05/24 04:34:58;;;;;;;22.13;9.70;;;13.40;99.90;;;;;;5094084;28;20206;-77
2022/05/24 04:37:24;;;;;;;15.38;7.80;;;13.40;99.90;;;;;;5095083;28;20114;-77
2022/05/24 04:39:50;;;;;;;14.70;8.32;;;13.40;99.90;;;;;;5095170;28;20035;-77
2022/05/24 04:42:18;;;;;;;17.08;7.50;;;13.30;99.90;;;;;;5094228;28;20127;-78
2022/05/24 04:44:56;;;;;;;12.40;6.32;;;13.30;99.90;;;;;;5094638;28;20365;-77
2022/05/24 04:47:24;;;;;;;12.68;6.07;;;13.30;99.90;;;;;;5094744;28;20038;-77
2022/05/24 04:49:55;;;;;;;10.48;5.05;;;13.30;99.90;;;;;;5093302;28;20024;-77
2022/05/24 04:52:23;;;;;;;12.45;4.45;;;13.30;99.90;;;;;;5094674;28;20020;-78
2022/05/24 04:54:50;;;;;;;9.10;4.45;;;13.30;99.90;;;;;;5094399;28;20368;-79
2022/05/24 04:57:16;;;;;;;12.05;5.97;;;13.20;99.90;;;;;;5092689;28;20125;-78
2022/05/24 04:59:42;;;;;;;15.25;5.65;;;13.20;99.90;;;;;;5076518;28;20032;-77
2022/05/24 05:02:08;;;;;;;8.52;4.80;;;13.20;99.90;;;;;;5093895;28;20040;-78
2022/05/24 05:04:34;;;;;;;12.68;4.97;;;13.30;99.90;;;;;;5093849;28;20401;-78
2022/05/24 05:06:59;;;;;;;12.23;4.53;;;13.30;99.90;;;;;;5094164;28;20039;-76
2022/05/24 05:09:25;;;;;;;9.50;4.47;;;13.40;99.90;;;;;;5094424;28;20020;-78
2022/05/24 05:11:51;;;;;;;10.98;5.20;;;13.40;99.90;;;;;;5093419;28;20024;-78
2022/05/24 05:14:16;;;;;;;11.60;4.88;;;13.40;99.90;;;;;;5094246;28;20123;-76
2022/05/24 05:16:42;;;;;;;12.07;5.63;;;13.40;99.90;;;;;;5093077;28;20051;-79
2022/05/24 05:19:10;;;;;;;14.43;4.47;;;13.40;99.90;;;;;;5092952;28;20064;-77
2022/05/24 05:21:37;;;;;;;7.95;4.30;;;13.30;99.90;;;;;;5092705;28;20036;-77
2022/05/24 05:24:04;;;;;;;11.68;4.45;;;13.40;99.90;;;;;;5091687;28;20180;-76
2022/05/24 05:26:30;;;;;;;7.60;3.92;;;13.30;99.90;;;;;;5092455;28;20388;-78
2022/05/24 05:28:56;;;;;;;16.55;4.75;;;13.30;99.90;;;;;;5091597;28;20036;-77
2022/05/24 05:31:26;;;;;;;9.38;3.90;;;13.30;99.90;;;;;;5091246;28;20032;-77
2022/05/24 05:33:53;;;;;;;11.27;4.68;;;13.30;99.90;;;;;;5091661;28;20103;-78
2022/05/24 05:36:19;;;;;;;10.18;4.07;;;13.30;99.90;;;;;;5091502;28;20109;-76
2022/05/24 05:38:46;;;;;;;13.05;4.00;;;13.30;99.90;;;;;;5090579;28;20626;-77
2022/05/24 05:41:13;;;;;;;8.77;3.72;;;13.40;99.90;;;;;;5091641;28;20055;-76
2022/05/24 05:43:38;;;;;;;15.23;5.28;;;13.50;99.90;;;;;;5091715;28;20024;-77
2022/05/24 05:46:04;;;;;;;13.25;4.78;;;13.50;99.90;;;;;;5090695;28;20344;-77
2022/05/24 05:48:30;;;;;;;7.78;4.95;;;13.60;99.90;;;;;;5091738;28;20028;-77
2022/05/24 05:50:56;;;;;;;10.15;5.85;;;13.50;99.90;;;;;;5091825;28;20031;-78
2022/05/24 05:53:22;;;;;;;7.38;5.43;;;13.50;99.90;;;;;;5088291;28;20032;-77
2022/05/24 05:55:47;;;;;;;12.38;6.70;;;13.50;99.90;;;;;;5092518;28;20069;-78
2022/05/24 05:58:13;;;;;;;15.65;7.53;;;13.50;99.90;;;;;;5091951;28;20036;-76
2022/05/24 06:00:41;;;;;;;7.32;6.47;;;13.60;99.90;;;;;;5090716;28;20426;-77
2022/05/24 06:03:07;;;;;;;17.38;6.90;;;13.60;99.90;;;;;;5091860;28;20040;-77
2022/05/24 06:05:34;;;;;;;13.35;5.95;;;13.60;99.90;;;;;;5092511;28;20031;-77
2022/05/24 06:08:00;;;;;;;9.73;6.38;;;13.70;99.90;;;;;;5092224;28;20476;-77
2022/05/24 06:10:27;;;;;;;14.55;6.88;;;13.70;99.90;;;;;;5092278;28;20062;-77
2022/05/24 06:12:53;;;;;;;10.18;5.93;;;13.80;99.90;;;;;;5090959;28;20055;-78
2022/05/24 06:15:19;;;;;;;12.00;5.47;;;13.80;99.90;;;;;;5095035;28;20460;-78
2022/05/24 06:17:49;;;;;;;15.38;7.45;;;13.90;99.90;;;;;;5097922;28;20020;-77
2022/05/24 06:20:17;;;;;;;9.55;6.15;;;14.00;99.90;;;;;;5091655;28;20036;-77
2022/05/24 06:22:43;;;;;;;9.45;5.75;;;14.20;99.90;;;;;;5091779;28;20036;-77
2022/05/24 06:25:09;;;;;;;9.88;5.07;;;14.30;99.90;;;;;;5093254;28;20396;-76
2022/05/24 06:27:35;;;;;;;12.82;4.78;;;14.40;99.90;;;;;;5105774;28;20465;-77
2022/05/24 06:30:00;;;;;;;12.98;5.30;;;14.50;99.90;;;;;;5092621;28;20073;-78
2022/05/24 06:32:26;;;;;;;13.25;4.82;;;14.50;99.90;;;;;;5100523;28;20026;-77
2022/05/24 06:34:53;;;;;;;9.80;3.85;;;14.50;99.90;;;;;;5090044;28;20103;-77
2022/05/24 06:37:19;;;;;;;11.18;4.68;;;14.50;99.90;;;;;;5091764;28;20420;-76
2022/05/24 06:39:46;;;;;;;7.25;3.80;;;14.60;99.90;;;;;;5091419;28;20051;-79
2022/05/24 06:42:12;;;;;;;6.85;3.80;;;14.60;99.90;;;;;;5087709;28;20089;-76
2022/05/24 06:44:37;;;;;;;8.23;3.38;;;14.60;99.90;;;;;;5090271;28;20028;-74
2022/05/24 06:47:04;;;;;;;10.82;3.45;;;14.70;99.90;;;;;;5089438;28;20479;-74
2022/05/24 06:49:29;;;;;;;7.35;3.33;;;14.60;99.90;;;;;;5089768;28;20023;-74
2022/05/24 06:51:55;;;;;;;12.50;4.13;;;14.60;99.90;;;;;;5088295;28;20020;-73
2022/05/24 06:54:20;;;;;;;9.00;4.50;;;14.60;99.90;;;;;;5090241;28;20020;-74
2022/05/24 06:56:46;;;;;;;13.02;4.18;;;14.40;99.90;;;;;;5089881;28;20087;-73
2022/05/24 07:02:27;;;;;;;6.28;3.70;;;14.50;99.90;;;;;;5027581;28;20528;-73
2022/05/24 07:05:06;;;;;;;5.63;3.80;;;14.60;99.90;;;;;;5080551;28;20449;-74
2022/05/24 07:07:33;;;;;;;7.10;4.03;;;14.70;99.90;;;;;;5092229;28;20036;-75
2022/05/24 07:10:00;;;;;;;6.22;4.60;;;14.80;99.90;;;;;;5091059;28;20077;-74
2022/05/24 07:12:26;;;;;;;4.53;3.67;;;14.90;99.90;;;;;;5092169;28;20066;-73
2022/05/24 07:14:52;;;;;;;4.80;3.72;;;15.10;99.90;;;;;;5091724;28;20054;-74
2022/05/24 07:17:18;;;;;;;4.38;3.38;;;15.10;99.90;;;;;;5091140;28;20525;-74
2022/05/24 07:19:45;;;;;;;6.97;2.85;;;15.20;99.90;;;;;;5092257;28;20063;-75
2022/05/24 07:22:12;;;;;;;10.75;3.20;;;15.10;99.90;;;;;;5091600;28;20085;-74
2022/05/24 07:24:38;;;;;;;5.07;3.17;;;15.10;99.90;;;;;;5090552;28;20054;-73
2022/05/24 07:27:07;;;;;;;8.77;2.92;;;15.10;99.90;;;;;;5091639;28;20521;-72
2022/05/24 07:29:34;;;;;;;3.15;2.90;;;15.10;99.90;;;;;;5091917;28;20032;-73
2022/05/24 07:32:00;;;;;;;8.15;2.97;;;15.20;99.90;;;;;;5090942;28;20056;-74
2022/05/24 07:34:26;;;;;;;6.50;2.95;;;15.30;99.90;;;;;;5092016;28;20466;-73
2022/05/24 07:36:51;;;;;;;5.38;3.00;;;15.50;99.90;;;;;;5091627;28;20020;-73
2022/05/24 07:39:18;;;;;;;5.38;2.55;;;15.60;99.90;;;;;;5091259;28;20551;-72
2022/05/24 07:47:12;;;;;;;3.03;2.50;;;15.50;99.90;;;;;;5094385;28;20082;-73
2022/05/24 07:49:38;;;;;;;3.58;2.33;;;15.50;99.90;;;;;;5095735;28;20024;-73
2022/05/24 07:52:04;;;;;;;3.50;2.30;;;15.50;99.90;;;;;;5094599;28;20337;-73
2022/05/24 07:54:31;;;;;;;6.40;3.35;;;15.40;99.90;;;;;;5095594;28;20448;-74
2022/05/24 07:56:56;;;;;;;5.97;2.97;;;15.30;99.90;;;;;;5094326;28;20464;-74
2022/05/24 07:59:22;;;;;;;3.83;2.72;;;15.20;99.90;;;;;;5094695;28;20020;-74
2022/05/24 08:01:48;;;;;;;4.88;3.42;;;15.20;99.90;;;;;;5095202;28;20024;-73
2022/05/24 08:04:13;;;;;;;6.35;3.15;;;15.10;99.90;;;;;;5095469;28;20035;-73
2022/05/24 08:06:39;;;;;;;4.53;2.22;;;15.00;99.90;;;;;;5094713;28;20020;-74
2022/05/24 08:09:05;;;;;;;7.88;2.42;;;14.90;99.90;;;;;;5093929;28;20365;-74
2022/05/24 08:11:31;;;;;;;5.80;2.47;;;14.70;99.90;;;;;;5093137;28;20106;-73
2022/05/24 08:13:58;;;;;;;4.28;2.40;;;14.40;99.90;;;;;;5088592;28;20111;-74
2022/05/24 08:16:25;;;;;;;2.65;1.67;;;14.20;99.90;;;;;;5112600;28;20528;-73
2022/05/24 08:18:51;;;;;;;3.08;0.77;;;14.10;99.90;;;;;;5113311;28;20130;-73
2022/05/24 08:21:17;;;;;;;3.75;1.13;;;13.90;99.90;;;;;;5113084;28;20528;-73
2022/05/24 08:23:43;;;;;;;0.93;0.80;;;13.70;99.90;;;;;;5113964;28;20483;-73
2022/05/24 08:26:08;;;;;;;1.20;0.70;;;13.60;99.90;;;;;;5113394;28;20027;-73
2022/05/24 08:28:34;;;;;;;1.23;1.00;;;13.60;99.90;;;;;;5113355;28;20112;-74
2022/05/24 08:31:01;;;;;;;1.50;1.00;;;13.70;99.90;;;;;;5112903;28;20072;-74
2022/05/24 08:33:28;;;;;;;3.20;2.05;;;13.80;99.90;;;;;;5118032;28;20077;-75
2022/05/24 08:35:54;;;;;;;3.42;2.38;;;13.90;99.90;;;;;;5100314;28;20292;-74
2022/05/24 08:38:23;;;;;;;4.35;2.65;;;14.00;99.90;;;;;;5118066;28;20040;-77
2022/05/24 08:40:51;;;;;;;2.78;2.30;;;14.10;99.90;;;;;;5123766;28;20462;-75
2022/05/24 08:43:49;;;;;;;2.38;2.17;;;14.40;99.90;;;;;;5126062;28;20062;-75
2022/05/24 08:49:16;;;;;;;3.65;2.10;;;14.90;99.90;;;;;;5116854;28;20073;-75
2022/05/24 08:52:02;;;;;;;4.88;2.17;;;14.90;99.90;;;;;;5108336;28;20027;-74
2022/05/24 08:54:38;;;;;;;3.08;2.10;;;14.80;99.90;;;;;;5115961;28;20046;-76
2022/05/24 08:57:25;;;;;;;5.03;1.52;;;14.60;99.90;;;;;;5116320;28;20043;-77
2022/05/24 08:59:59;;;;;;;2.13;1.13;;;14.30;99.90;;;;;;5112107;28;20384;-76
2022/05/24 09:02:24;;;;;;;2.03;1.15;;;14.10;99.90;;;;;;5115903;28;20031;-74
2022/05/24 09:04:51;;;;;;;1.95;1.15;;;14.00;99.90;;;;;;5094022;28;20043;-76
2022/05/24 09:07:54;;;;;;;1.10;1.00;;;14.00;99.90;;;;;;5118456;28;20047;-75
2022/05/24 09:10:25;;;;;;;3.03;1.63;;;14.20;99.90;;;;;;5106791;28;20040;-75
2022/05/24 09:13:29;;;;;;;4.90;1.40;;;14.40;99.90;;;;;;5112444;28;20083;-76
2022/05/24 09:16:08;;;;;;;2.58;1.00;;;14.60;99.90;;;;;;5112805;28;20034;-76
2022/05/24 09:18:39;;;;;;;1.00;0.88;;;14.80;99.90;;;;;;5104048;28;20024;-75
2022/05/24 09:21:05;;;;;;;1.95;0.82;;;14.50;99.90;;;;;;5110783;28;20024;-75
2022/05/24 09:23:46;;;;;;;1.98;0.90;;;14.80;99.90;;;;;;5118240;28;20042;-75
2022/05/24 09:26:20;;;;;;;3.95;1.50;;;14.90;99.90;;;;;;5119210;28;20039;-74
2022/05/24 09:28:55;;;;;;;5.65;1.50;;;15.00;99.90;;;;;;5119287;28;20015;-75
2022/05/24 09:31:42;;;;;;;2.80;1.55;;;15.10;99.90;;;;;;5116338;28;20020;-78
2022/05/24 09:34:27;;;;;;;1.65;1.30;;;14.90;99.90;;;;;;5124450;28;20095;-75
2022/05/24 09:37:00;;;;;;;2.42;1.30;;;14.80;99.90;;;;;;5111199;28;20027;-76
2022/05/24 09:40:00;;;;;;;2.25;1.20;;;14.60;99.90;;;;;;5120738;28;20026;-76
2022/05/24 09:42:33;;;;;;;3.30;1.07;;;14.40;99.90;;;;;;5112392;28;20038;-75
2022/05/24 09:45:05;;;;;;;0.82;0.30;;;14.10;99.90;;;;;;5115176;28;20012;-75
2022/05/24 09:47:41;;;;;;;0.20;0.20;;;13.70;99.90;;;;;;5107943;28;20020;-74
2022/05/24 09:50:38;;;;;;;0.55;0.50;;;13.10;99.90;;;;;;5093183;28;20806;-74
2022/05/24 09:53:19;;;;;;;1.23;0.60;;;12.80;99.90;;;;;;5106447;28;20058;-75
2022/05/24 09:55:49;;;;;;;;;;;12.80;99.90;;;;;;5127398;28;20035;-75
2022/05/24 09:58:35;;;;;;;5.00;0.98;;;12.80;99.90;;;;;;5126650;28;19919;-75
2022/05/24 10:01:11;;;;;;;5.45;1.30;;;13.10;99.90;;;;;;5110841;28;20057;-74
2022/05/24 10:03:41;;;;;;;4.32;1.50;;;13.40;99.90;;;;;;5127436;28;20070;-75
2022/05/24 10:06:14;;;;;;;8.20;3.10;;;13.60;99.90;;;;;;5120005;28;20032;-75
2022/05/24 10:08:54;;;;;;;6.97;2.45;;;13.80;99.90;;;;;;5109032;28;20047;-75
2022/05/24 10:11:38;;;;;;;5.93;2.20;;;14.00;99.90;;;;;;5113377;28;20024;-75
2022/05/24 10:14:48;;;;;;;8.05;2.30;;;14.20;99.90;;;;;;5112005;28;20042;-74
2022/05/24 10:17:40;;;;;;;15.15;3.17;;;14.30;99.90;;;;;;5065592;28;20040;-75
2022/05/24 10:20:31;;;;;;;4.43;2.10;;;14.30;99.90;;;;;;5067548;28;20043;-75
2022/05/24 10:23:12;;;;;;;7.32;2.58;;;14.20;99.90;;;;;;5086630;28;20047;-74
2022/05/24 10:26:08;;;;;;;5.93;2.08;;;14.00;99.90;;;;;;5099535;28;20027;-74
2022/05/24 10:28:39;;;;;;;4.93;2.55;;;13.90;99.90;;;;;;5113280;28;20035;-77
2022/05/24 10:31:13;;;;;;;5.32;2.70;;;13.90;99.90;;;;;;5111669;28;20431;-77
2022/05/24 10:39:47;;;;;;;4.47;1.70;;;14.30;99.90;;;;;;5111618;28;20066;-76
2022/05/24 10:42:30;;;;;;;5.30;1.98;;;14.40;99.90;;;;;;5110888;28;20031;-76
2022/05/24 10:45:18;;;;;;;2.90;2.22;;;14.40;99.90;;;;;;5109735;28;20044;-75
2022/05/24 10:47:59;;;;;;;7.35;2.00;;;14.50;99.90;;;;;;5128030;28;20035;-75
2022/05/24 10:50:46;;;;;;;5.75;2.20;;;14.60;99.90;;;;;;5110865;28;20375;-77
2022/05/24 10:53:20;;;;;;;7.22;2.42;;;14.80;99.90;;;;;;5106893;28;20058;-77
2022/05/24 10:56:02;;;;;;;4.80;2.60;;;15.00;99.90;;;;;;5097302;28;20027;-76
2022/05/24 10:58:32;;;;;;;4.00;2.30;;;15.00;99.90;;;;;;5067702;28;20040;-75
2022/05/24 11:01:01;;;;;;;7.35;2.30;;;15.00;99.90;;;;;;5058612;28;20017;-76
2022/05/24 11:03:33;;;;;;;5.28;2.20;;;15.10;99.90;;;;;;5066758;28;20108;-75
2022/05/24 11:06:10;;;;;;;6.88;2.55;;;15.10;99.90;;;;;;5076547;28;20035;-75
2022/05/24 11:08:42;;;;;;;6.97;2.70;;;15.00;99.90;;;;;;5077762;28;20053;-77
2022/05/24 11:11:26;;;;;;;6.50;2.58;;;15.10;99.90;;;;;;5084821;28;20044;-77
2022/05/24 11:14:15;;;;;;;6.57;1.75;;;15.30;99.90;;;;;;5081493;28;20032;-77
2022/05/24 11:16:50;;;;;;;2.92;1.73;;;15.50;99.90;;;;;;5076623;28;20021;-76
2022/05/24 11:19:40;;;;;;;1.52;1.38;;;15.60;99.90;;;;;;5057246;28;20029;-76
2022/05/24 11:22:30;;;;;;;7.05;1.77;;;15.80;99.90;;;;;;5075868;28;20056;-76
2022/05/24 11:25:11;;;;;;;7.32;2.47;;;15.90;99.90;;;;;;5074459;28;20024;-76
2022/05/24 11:27:46;;;;;;;3.75;1.65;;;16.00;99.90;;;;;;5081384;28;20032;-75
2022/05/24 11:30:30;;;;;;;7.60;1.90;;;15.90;99.90;;;;;;5065989;28;20052;-75
2022/05/24 11:33:10;;;;;;;2.10;1.60;;;15.80;99.90;;;;;;5071742;28;20017;-75
2022/05/24 11:35:45;;;;;;;1.75;1.48;;;15.70;99.90;;;;;;5074859;28;20041;-76
2022/05/24 11:38:41;;;;;;;5.78;2.00;;;15.70;99.90;;;;;;5078851;28;20029;-76
2022/05/24 11:41:12;;;;;;;5.70;1.52;;;15.80;99.90;;;;;;5072583;28;20037;-77
2022/05/24 11:43:45;;;;;;;3.40;1.63;;;15.90;99.90;;;;;;5077553;28;20040;-77
2022/05/24 11:46:33;;;;;;;4.80;2.47;;;16.10;99.90;;;;;;5079286;28;20032;-77
2022/05/24 11:49:10;;;;;;;2.83;1.83;;;16.20;99.90;;;;;;5073799;28;20029;-77
2022/05/24 11:51:49;;;;;;;4.43;2.10;;;16.50;99.90;;;;;;5075960;28;20044;-76
2022/05/24 11:54:29;;;;;;;8.32;2.15;;;16.60;99.90;;;;;;5074617;28;20021;-77
2022/05/24 11:57:22;;;;;;;2.50;1.40;;;16.50;99.90;;;;;;5087142;28;20093;-77
2022/05/24 11:59:50;;;;;;;2.75;1.20;;;16.30;99.90;;;;;;5121643;28;20024;-79
2022/05/24 12:08:38;;;;;;;2.90;1.52;;;16.50;99.90;;;;;;5136065;28;20085;-78
2022/05/24 12:11:32;;;;;;;1.27;1.00;;;16.80;99.90;;;;;;5132245;28;20032;-76
2022/05/24 12:14:25;;;;;;;4.38;1.33;;;16.80;99.90;;;;;;5134860;28;20028;-77
2022/05/24 12:16:53;;;;;;;2.38;1.10;;;16.90;99.90;;;;;;5120131;28;20016;-77
2022/05/24 12:19:38;;;;;;;5.68;0.90;;;17.00;99.90;;;;;;5129315;28;20547;-77
2022/05/24 12:22:07;;;;;;;1.30;0.70;;;16.90;99.90;;;;;;5100056;28;20035;-76
2022/05/24 12:24:36;;;;;;;1.13;0.60;;;16.90;99.90;;;;;;5120001;28;20028;-77
2022/05/24 12:27:37;;;;;;;3.40;0.80;;;16.90;99.90;;;;;;5124141;28;20041;-77
2022/05/24 12:30:18;;;;;;;3.17;0.70;;;17.20;99.90;;;;;;5126731;28;20031;-76
2022/05/24 12:32:44;;;;;;;0.80;0.52;;;17.40;99.90;;;;;;5118451;28;20030;-75
2022/05/24 12:35:13;;;;;;;0.98;0.60;;;17.40;99.90;;;;;;5119695;28;20024;-76
2022/05/24 12:38:03;;;;;;;1.48;0.77;;;17.40;99.90;;;;;;5120612;28;20031;-76
2022/05/24 12:40:31;;;;;;;1.00;0.98;;;17.50;99.90;;;;;;5110063;28;20046;-77
2022/05/24 12:43:00;;;;;;;0.95;0.55;;;17.50;99.90;;;;;;5125177;28;20886;-76
2022/05/24 12:45:25;;;;;;;1.23;1.00;;;17.50;99.90;;;;;;5132517;28;20077;-75
2022/05/24 12:47:53;;;;;;;0.90;0.52;;;17.60;99.90;;;;;;5131735;28;20023;-76
2022/05/24 12:50:31;;;;;;;1.85;0.90;;;17.60;99.90;;;;;;5133402;28;20030;-76
2022/05/24 12:53:00;;;;;;;2.55;0.63;;;17.50;99.90;;;;;;5120076;28;20031;-77
2022/05/24 12:58:30;;;;;;;4.00;0.60;;;17.80;99.90;;;;;;5122714;28;20058;-76
2022/05/24 13:01:13;;;;;;;0.90;0.65;;;17.90;99.90;;;;;;5114515;28;20042;-76
2022/05/24 13:04:15;;;;;;;0.82;0.40;;;18.10;99.90;;;;;;5120580;28;20387;-76
2022/05/24 13:06:43;;;;;;;1.15;0.50;;;18.50;99.90;;;;;;5112027;28;20028;-76
2022/05/24 13:09:17;;;;;;;0.73;0.50;;;18.60;99.90;;;;;;5117337;28;20563;-75
2022/05/24 13:12:00;;;;;;;1.52;0.60;;;18.80;99.90;;;;;;5113779;28;20035;-75
2022/05/24 13:14:58;;;;;;;1.92;0.60;;;19.00;99.90;;;;;;5112477;28;20035;-76
2022/05/24 13:17:28;;;;;;;1.52;0.52;;;19.10;99.90;;;;;;5102082;28;20021;-76
2022/05/24 13:19:58;;;;;;;1.00;0.60;;;19.20;99.90;;;;;;5119027;28;20020;-75
2022/05/24 13:22:47;;;;;;;1.08;0.60;;;19.30;99.90;;;;;;5114713;28;20025;-77
2022/05/24 13:25:23;;;;;;;1.42;0.50;;;19.60;99.90;;;;;;5115715;28;20025;-75
2022/05/24 13:28:03;;;;;;;4.20;0.70;;;19.90;99.90;;;;;;5103788;28;20418;-75
2022/05/24 13:33:36;;;;;;;1.85;0.43;;;19.90;98.70;;;;;;5118726;28;20139;-75
2022/05/24 13:36:16;;;;;;;3.38;0.57;;;19.70;98.90;;;;;;5111667;28;20023;-76
2022/05/24 13:38:44;;;;;;;2.95;0.43;;;19.50;98.60;;;;;;5095594;28;20050;-74
2022/05/24 13:41:11;;;;;;;1.67;0.47;;;19.40;98.50;;;;;;5118616;28;20166;-75